EWG76U EDDL-EDDH
Flight info
| Callsign | EWG76U |
|---|---|
| Flight time | 0h 56m |
| Altitude | 33000 |
| Route | MEVEL1Z MEVEL Y850 BASUM/N0432F320 Y850 PIXUR/N0433F310 Y850 MUBZI M105 RIBSO RIBSO7A |
| Aircraft | A320/M-SDE3FGHIRWY/LB1 |
Departure
| Time | 2026-05-05 18:35 |
|---|---|
| Airport | Düsseldorf Airport (EDDL) |
Arrival
| Time | 2026-05-05 19:32 |
|---|---|
| Airport | Hamburg Helmut Schmidt Airport (EDDH) |
| Time | Latitude | Longitude | Altitude | Speed | Heading |
|---|---|---|---|---|---|
| 2026-05-05 18:11 | 51.28150 | 6.76545 | 127 ft | 0 kts | 96° |
| 2026-05-05 18:24 | 51.28150 | 6.76537 | 130 ft | 2 kts | 97° |
| 2026-05-05 18:25 | 51.28153 | 6.76506 | 127 ft | 3 kts | 96° |
| 2026-05-05 18:25 | 51.28154 | 6.76484 | 127 ft | 3 kts | 92° |
| 2026-05-05 18:25 | 51.28153 | 6.76443 | 127 ft | 3 kts | 66° |
| 2026-05-05 18:25 | 51.28145 | 6.76424 | 125 ft | 2 kts | 13° |
| 2026-05-05 18:26 | 51.28142 | 6.76423 | 127 ft | 0 kts | 6° |
| 2026-05-05 18:28 | 51.28185 | 6.76431 | 118 ft | 4 kts | 6° |
| 2026-05-05 18:28 | 51.28221 | 6.76438 | 130 ft | 6 kts | 9° |
| 2026-05-05 18:28 | 51.28282 | 6.76500 | 127 ft | 13 kts | 18° |
| 2026-05-05 18:29 | 51.28310 | 6.76398 | 126 ft | 13 kts | 242° |
| 2026-05-05 18:29 | 51.28257 | 6.76294 | 126 ft | 11 kts | 233° |
| 2026-05-05 18:29 | 51.28215 | 6.76204 | 127 ft | 9 kts | 233° |
| 2026-05-05 18:29 | 51.28180 | 6.76130 | 129 ft | 8 kts | 233° |
| 2026-05-05 18:30 | 51.28151 | 6.76067 | 127 ft | 7 kts | 233° |
| 2026-05-05 18:30 | 51.28126 | 6.76013 | 130 ft | 6 kts | 231° |
| 2026-05-05 18:30 | 51.28089 | 6.75940 | 127 ft | 14 kts | 231° |
| 2026-05-05 18:30 | 51.28034 | 6.75824 | 127 ft | 12 kts | 234° |
| 2026-05-05 18:31 | 51.27985 | 6.75717 | 127 ft | 11 kts | 232° |
| 2026-05-05 18:31 | 51.27938 | 6.75620 | 129 ft | 11 kts | 232° |
| 2026-05-05 18:31 | 51.27891 | 6.75524 | 128 ft | 11 kts | 232° |
| 2026-05-05 18:31 | 51.27845 | 6.75427 | 127 ft | 11 kts | 235° |
| 2026-05-05 18:32 | 51.27866 | 6.75328 | 125 ft | 11 kts | 330° |
| 2026-05-05 18:32 | 51.27878 | 6.75319 | 123 ft | 0 kts | 334° |
| 2026-05-05 18:32 | 51.27884 | 6.75315 | 125 ft | 1 kts | 334° |
| 2026-05-05 18:32 | 51.27891 | 6.75310 | 124 ft | 0 kts | 334° |
| 2026-05-05 18:33 | 51.27895 | 6.75306 | 124 ft | 4 kts | 334° |
| 2026-05-05 18:33 | 51.27951 | 6.75263 | 119 ft | 12 kts | 334° |
| 2026-05-05 18:33 | 51.28015 | 6.75310 | 119 ft | 7 kts | 53° |
| 2026-05-05 18:33 | 51.28017 | 6.75315 | 123 ft | 0 kts | 53° |
| 2026-05-05 18:34 | 51.28022 | 6.75326 | 123 ft | 8 kts | 53° |
| 2026-05-05 18:34 | 51.28224 | 6.75748 | 131 ft | 86 kts | 53° |
| 2026-05-05 18:35 | 51.28728 | 6.76783 | 135 ft | 147 kts | 48° |
| 2026-05-05 18:35 | 51.29410 | 6.78125 | 627 ft | 159 kts | 49° |
| 2026-05-05 18:35 | 51.30083 | 6.79601 | 1319 ft | 169 kts | 54° |
| 2026-05-05 18:35 | 51.30760 | 6.81241 | 1894 ft | 186 kts | 56° |
| 2026-05-05 18:36 | 51.31459 | 6.83079 | 2508 ft | 202 kts | 58° |
| 2026-05-05 18:36 | 51.32319 | 6.85028 | 3006 ft | 226 kts | 52° |
| 2026-05-05 18:36 | 51.33357 | 6.87097 | 3570 ft | 250 kts | 52° |
| 2026-05-05 18:36 | 51.34489 | 6.89282 | 4425 ft | 259 kts | 44° |
| 2026-05-05 18:37 | 51.36058 | 6.90778 | 4870 ft | 269 kts | 14° |
| 2026-05-05 18:37 | 51.37931 | 6.91229 | 5723 ft | 273 kts | 8° |
| 2026-05-05 18:37 | 51.39827 | 6.91674 | 6700 ft | 276 kts | 9° |
| 2026-05-05 18:37 | 51.41740 | 6.92173 | 7611 ft | 281 kts | 9° |
| 2026-05-05 18:38 | 51.43682 | 6.92700 | 8539 ft | 286 kts | 9° |
| 2026-05-05 18:38 | 51.45656 | 6.93241 | 9471 ft | 290 kts | 9° |
| 2026-05-05 18:38 | 51.47676 | 6.93790 | 10201 ft | 301 kts | 8° |
| 2026-05-05 18:38 | 51.49814 | 6.94064 | 10525 ft | 324 kts | 359° |
| 2026-05-05 18:39 | 51.52166 | 6.93695 | 10824 ft | 346 kts | 349° |
| 2026-05-05 18:39 | 51.54557 | 6.93087 | 11395 ft | 358 kts | 355° |
| 2026-05-05 18:39 | 51.57055 | 6.93440 | 12088 ft | 366 kts | 15° |
| 2026-05-05 18:39 | 51.59363 | 6.95184 | 12850 ft | 370 kts | 37° |
| 2026-05-05 18:40 | 51.61306 | 6.97930 | 13577 ft | 375 kts | 44° |
| 2026-05-05 18:40 | 51.63228 | 7.00826 | 14237 ft | 380 kts | 44° |
| 2026-05-05 18:40 | 51.65162 | 7.03759 | 14924 ft | 384 kts | 44° |
| 2026-05-05 18:40 | 51.67115 | 7.06728 | 15598 ft | 388 kts | 44° |
| 2026-05-05 18:41 | 51.69091 | 7.09725 | 16292 ft | 391 kts | 44° |
| 2026-05-05 18:41 | 51.71083 | 7.12745 | 16956 ft | 395 kts | 44° |
| 2026-05-05 18:41 | 51.73099 | 7.15794 | 17661 ft | 399 kts | 44° |
| 2026-05-05 18:41 | 51.75136 | 7.18870 | 18268 ft | 403 kts | 44° |
| 2026-05-05 18:42 | 51.77196 | 7.21986 | 18843 ft | 407 kts | 44° |
| 2026-05-05 18:42 | 51.79263 | 7.25122 | 19425 ft | 410 kts | 44° |
| 2026-05-05 18:42 | 51.81353 | 7.28300 | 20012 ft | 414 kts | 44° |
| 2026-05-05 18:42 | 51.83452 | 7.31500 | 20586 ft | 417 kts | 44° |
| 2026-05-05 18:43 | 51.85575 | 7.34736 | 21125 ft | 421 kts | 44° |
| 2026-05-05 18:43 | 51.87716 | 7.38000 | 21654 ft | 425 kts | 45° |
| 2026-05-05 18:43 | 51.89879 | 7.41301 | 22168 ft | 429 kts | 45° |
| 2026-05-05 18:43 | 51.92030 | 7.44590 | 22654 ft | 433 kts | 45° |
| 2026-05-05 18:44 | 51.94229 | 7.47960 | 23147 ft | 436 kts | 45° |
| 2026-05-05 18:44 | 51.96437 | 7.51358 | 23594 ft | 440 kts | 45° |
| 2026-05-05 18:44 | 51.98673 | 7.54802 | 24004 ft | 443 kts | 45° |
| 2026-05-05 18:44 | 52.00915 | 7.58253 | 24401 ft | 446 kts | 45° |
| 2026-05-05 18:45 | 52.03170 | 7.61730 | 24803 ft | 448 kts | 45° |
| 2026-05-05 18:45 | 52.05436 | 7.65235 | 25156 ft | 452 kts | 45° |
| 2026-05-05 18:45 | 52.07726 | 7.68785 | 25509 ft | 456 kts | 45° |
| 2026-05-05 18:45 | 52.10024 | 7.72354 | 25878 ft | 458 kts | 45° |
| 2026-05-05 18:46 | 52.12336 | 7.75947 | 26249 ft | 461 kts | 45° |
| 2026-05-05 18:46 | 52.14663 | 7.79563 | 26613 ft | 463 kts | 45° |
| 2026-05-05 18:46 | 52.17002 | 7.83194 | 26969 ft | 466 kts | 45° |
| 2026-05-05 18:46 | 52.19350 | 7.86841 | 27320 ft | 468 kts | 45° |
| 2026-05-05 18:47 | 52.21718 | 7.90525 | 27661 ft | 470 kts | 45° |
| 2026-05-05 18:47 | 52.24088 | 7.94225 | 27835 ft | 472 kts | 45° |
| 2026-05-05 18:47 | 52.26456 | 7.97932 | 27868 ft | 472 kts | 45° |
| 2026-05-05 18:47 | 52.28827 | 8.01651 | 27862 ft | 473 kts | 45° |
| 2026-05-05 18:48 | 52.31171 | 8.05339 | 27866 ft | 474 kts | 45° |
| 2026-05-05 18:48 | 52.33541 | 8.09075 | 27865 ft | 474 kts | 45° |
| 2026-05-05 18:48 | 52.35914 | 8.12820 | 27865 ft | 474 kts | 45° |
| 2026-05-05 18:48 | 52.38286 | 8.16563 | 27865 ft | 474 kts | 45° |
| 2026-05-05 18:49 | 52.40658 | 8.20310 | 27868 ft | 474 kts | 45° |
| 2026-05-05 18:49 | 52.43028 | 8.24062 | 27868 ft | 473 kts | 45° |
| 2026-05-05 18:49 | 52.45395 | 8.27818 | 27868 ft | 473 kts | 45° |
| 2026-05-05 18:49 | 52.47759 | 8.31572 | 27884 ft | 473 kts | 45° |
| 2026-05-05 18:50 | 52.50133 | 8.35351 | 27872 ft | 476 kts | 44° |
| 2026-05-05 18:50 | 52.52505 | 8.39139 | 27874 ft | 476 kts | 44° |
| 2026-05-05 18:50 | 52.54882 | 8.42940 | 27874 ft | 477 kts | 45° |
| 2026-05-05 18:50 | 52.57291 | 8.46795 | 27680 ft | 486 kts | 45° |
| 2026-05-05 18:51 | 52.59693 | 8.50642 | 27322 ft | 489 kts | 45° |
| 2026-05-05 18:51 | 52.62128 | 8.54546 | 26905 ft | 487 kts | 45° |
| 2026-05-05 18:51 | 52.64549 | 8.58428 | 26527 ft | 485 kts | 45° |
| 2026-05-05 18:51 | 52.66957 | 8.62294 | 26146 ft | 482 kts | 45° |
| 2026-05-05 18:52 | 52.69346 | 8.66138 | 25789 ft | 479 kts | 44° |
| 2026-05-05 18:52 | 52.71745 | 8.69952 | 25413 ft | 478 kts | 41° |
| 2026-05-05 18:52 | 52.74384 | 8.73258 | 25057 ft | 475 kts | 31° |
| 2026-05-05 18:52 | 52.77288 | 8.75809 | 24842 ft | 471 kts | 22° |
| 2026-05-05 18:53 | 52.80376 | 8.77591 | 24892 ft | 470 kts | 13° |
| 2026-05-05 18:53 | 52.83587 | 8.78602 | 24892 ft | 468 kts | 4° |
| 2026-05-05 18:53 | 52.86830 | 8.78806 | 24893 ft | 466 kts | 357° |
| 2026-05-05 18:53 | 52.90068 | 8.78775 | 24892 ft | 466 kts | 357° |
| 2026-05-05 18:54 | 52.93314 | 8.78737 | 24904 ft | 465 kts | 357° |
| 2026-05-05 18:54 | 52.96549 | 8.78818 | 24888 ft | 466 kts | 2° |
| 2026-05-05 18:54 | 52.99771 | 8.79487 | 24894 ft | 467 kts | 6° |
| 2026-05-05 18:54 | 53.02946 | 8.80225 | 24893 ft | 467 kts | 6° |
| 2026-05-05 18:55 | 53.06167 | 8.80962 | 24740 ft | 468 kts | 6° |
| 2026-05-05 18:55 | 53.09367 | 8.81685 | 24269 ft | 463 kts | 6° |
| 2026-05-05 18:55 | 53.12553 | 8.82401 | 23804 ft | 459 kts | 6° |
| 2026-05-05 18:55 | 53.15706 | 8.83114 | 23319 ft | 456 kts | 6° |
| 2026-05-05 18:56 | 53.18845 | 8.83827 | 22721 ft | 452 kts | 6° |
| 2026-05-05 18:56 | 53.21946 | 8.84534 | 22105 ft | 447 kts | 6° |
| 2026-05-05 18:56 | 53.25009 | 8.85237 | 21503 ft | 442 kts | 6° |
| 2026-05-05 18:56 | 53.28037 | 8.85938 | 20912 ft | 437 kts | 6° |
| 2026-05-05 18:57 | 53.31038 | 8.86635 | 20332 ft | 432 kts | 6° |
| 2026-05-05 18:57 | 53.33992 | 8.87462 | 19718 ft | 429 kts | 12° |
| 2026-05-05 18:57 | 53.36818 | 8.88964 | 19115 ft | 425 kts | 21° |
| 2026-05-05 18:57 | 53.39534 | 8.90881 | 18522 ft | 421 kts | 22° |
| 2026-05-05 18:58 | 53.42212 | 8.92778 | 17902 ft | 415 kts | 22° |
| 2026-05-05 18:58 | 53.44827 | 8.94635 | 17236 ft | 400 kts | 22° |
| 2026-05-05 18:58 | 53.47338 | 8.96421 | 16592 ft | 383 kts | 22° |
| 2026-05-05 18:58 | 53.49743 | 8.98133 | 15953 ft | 369 kts | 22° |
| 2026-05-05 18:59 | 53.52062 | 8.99786 | 15328 ft | 357 kts | 22° |
| 2026-05-05 18:59 | 53.54219 | 9.01608 | 14723 ft | 348 kts | 30° |
| 2026-05-05 18:59 | 53.56232 | 9.03900 | 14122 ft | 343 kts | 34° |
| 2026-05-05 18:59 | 53.58165 | 9.06214 | 13508 ft | 339 kts | 34° |
| 2026-05-05 19:00 | 53.60053 | 9.08471 | 12855 ft | 336 kts | 34° |
| 2026-05-05 19:00 | 53.61947 | 9.10735 | 12187 ft | 332 kts | 34° |
| 2026-05-05 19:00 | 53.63824 | 9.12981 | 11560 ft | 329 kts | 34° |
| 2026-05-05 19:00 | 53.65683 | 9.15215 | 10939 ft | 327 kts | 34° |
| 2026-05-05 19:01 | 53.67529 | 9.17433 | 10327 ft | 325 kts | 34° |
| 2026-05-05 19:01 | 53.69364 | 9.19638 | 9992 ft | 323 kts | 34° |
| 2026-05-05 19:01 | 53.70565 | 9.21116 | 9903 ft | 323 kts | 38° |
| 2026-05-05 19:01 | 53.72338 | 9.25169 | 9641 ft | 325 kts | 69° |
| 2026-05-05 19:02 | 53.72696 | 9.27591 | 9291 ft | 320 kts | 85° |
| 2026-05-05 19:02 | 53.72474 | 9.31273 | 8747 ft | 314 kts | 110° |
| 2026-05-05 19:02 | 53.71398 | 9.34407 | 8248 ft | 308 kts | 135° |
| 2026-05-05 19:02 | 53.69799 | 9.36781 | 7741 ft | 306 kts | 143° |
| 2026-05-05 19:03 | 53.68127 | 9.38996 | 7231 ft | 305 kts | 144° |
| 2026-05-05 19:03 | 53.66451 | 9.41148 | 6731 ft | 301 kts | 144° |
| 2026-05-05 19:03 | 53.64771 | 9.43247 | 6238 ft | 298 kts | 144° |
| 2026-05-05 19:03 | 53.63100 | 9.45296 | 5714 ft | 295 kts | 142° |
| 2026-05-05 19:04 | 53.61575 | 9.47553 | 5201 ft | 290 kts | 129° |
| 2026-05-05 19:04 | 53.60677 | 9.50462 | 4718 ft | 273 kts | 101° |
| 2026-05-05 19:04 | 53.60596 | 9.53520 | 4356 ft | 253 kts | 86° |
| 2026-05-05 19:04 | 53.60718 | 9.56378 | 4050 ft | 235 kts | 84° |
| 2026-05-05 19:05 | 53.60843 | 9.59034 | 4010 ft | 225 kts | 84° |
| 2026-05-05 19:05 | 53.60797 | 9.61656 | 4008 ft | 226 kts | 106° |
| 2026-05-05 19:05 | 53.59967 | 9.63888 | 4012 ft | 230 kts | 138° |
| 2026-05-05 19:05 | 53.58522 | 9.65025 | 4009 ft | 235 kts | 171° |
| 2026-05-05 19:06 | 53.56908 | 9.64678 | 4010 ft | 239 kts | 204° |
| 2026-05-05 19:06 | 53.55610 | 9.62966 | 4015 ft | 240 kts | 229° |
| 2026-05-05 19:06 | 53.54577 | 9.60746 | 4006 ft | 241 kts | 233° |
| 2026-05-05 19:06 | 53.53591 | 9.58469 | 4006 ft | 242 kts | 234° |
| 2026-05-05 19:07 | 53.52610 | 9.56174 | 4010 ft | 242 kts | 234° |
| 2026-05-05 19:07 | 53.51629 | 9.53871 | 4010 ft | 243 kts | 234° |
| 2026-05-05 19:07 | 53.50648 | 9.51569 | 4016 ft | 242 kts | 234° |
| 2026-05-05 19:07 | 53.49669 | 9.49271 | 4016 ft | 242 kts | 234° |
| 2026-05-05 19:08 | 53.48692 | 9.46973 | 4012 ft | 241 kts | 234° |
| 2026-05-05 19:08 | 53.47716 | 9.44686 | 4013 ft | 241 kts | 234° |
| 2026-05-05 19:08 | 53.46738 | 9.42396 | 4011 ft | 242 kts | 234° |
| 2026-05-05 19:08 | 53.45549 | 9.40457 | 4015 ft | 240 kts | 206° |
| 2026-05-05 19:09 | 53.43958 | 9.39812 | 4020 ft | 236 kts | 173° |
| 2026-05-05 19:09 | 53.42442 | 9.40662 | 4021 ft | 230 kts | 140° |
| 2026-05-05 19:09 | 53.41470 | 9.42712 | 4020 ft | 225 kts | 108° |
| 2026-05-05 19:09 | 53.41266 | 9.45245 | 4024 ft | 224 kts | 87° |
| 2026-05-05 19:10 | 53.41345 | 9.47860 | 4021 ft | 225 kts | 84° |
| 2026-05-05 19:10 | 53.41465 | 9.50475 | 4021 ft | 225 kts | 84° |
| 2026-05-05 19:10 | 53.41590 | 9.53085 | 4016 ft | 224 kts | 84° |
| 2026-05-05 19:10 | 53.41826 | 9.55668 | 4018 ft | 224 kts | 69° |
| 2026-05-05 19:11 | 53.42617 | 9.57893 | 4024 ft | 224 kts | 50° |
| 2026-05-05 19:11 | 53.43627 | 9.59894 | 4016 ft | 224 kts | 50° |
| 2026-05-05 19:11 | 53.44635 | 9.61888 | 4009 ft | 224 kts | 50° |
| 2026-05-05 19:11 | 53.45641 | 9.63890 | 4010 ft | 224 kts | 50° |
| 2026-05-05 19:12 | 53.46605 | 9.65813 | 4005 ft | 204 kts | 50° |
| 2026-05-05 19:12 | 53.47454 | 9.67508 | 4026 ft | 178 kts | 50° |
| 2026-05-05 19:12 | 53.48235 | 9.69068 | 4006 ft | 173 kts | 50° |
| 2026-05-05 19:12 | 53.49006 | 9.70610 | 3961 ft | 172 kts | 50° |
| 2026-05-05 19:13 | 53.49773 | 9.72143 | 3799 ft | 171 kts | 50° |
| 2026-05-05 19:13 | 53.50535 | 9.73669 | 3589 ft | 170 kts | 50° |
| 2026-05-05 19:13 | 53.51290 | 9.75180 | 3366 ft | 168 kts | 50° |
| 2026-05-05 19:13 | 53.52035 | 9.76673 | 3145 ft | 165 kts | 50° |
| 2026-05-05 19:14 | 53.52760 | 9.78126 | 2922 ft | 164 kts | 50° |
| 2026-05-05 19:14 | 53.53487 | 9.79585 | 2700 ft | 162 kts | 50° |
| 2026-05-05 19:14 | 53.54206 | 9.81027 | 2483 ft | 160 kts | 50° |
| 2026-05-05 19:14 | 53.54919 | 9.82460 | 2265 ft | 159 kts | 50° |
| 2026-05-05 19:15 | 53.55626 | 9.83880 | 2047 ft | 158 kts | 51° |
| 2026-05-05 19:15 | 53.56293 | 9.85220 | 1854 ft | 140 kts | 51° |
| 2026-05-05 19:15 | 53.56896 | 9.86434 | 1662 ft | 133 kts | 51° |
| 2026-05-05 19:15 | 53.57480 | 9.87608 | 1479 ft | 129 kts | 51° |
| 2026-05-05 19:16 | 53.58052 | 9.88760 | 1299 ft | 128 kts | 51° |
| 2026-05-05 19:16 | 53.58624 | 9.89912 | 1111 ft | 129 kts | 50° |
| 2026-05-05 19:16 | 53.59207 | 9.91087 | 925 ft | 132 kts | 51° |
| 2026-05-05 19:16 | 53.59799 | 9.92281 | 747 ft | 134 kts | 50° |
| 2026-05-05 19:17 | 53.60398 | 9.93490 | 570 ft | 134 kts | 50° |
| 2026-05-05 19:17 | 53.61028 | 9.94761 | 585 ft | 157 kts | 50° |
| 2026-05-05 19:17 | 53.61784 | 9.96293 | 1084 ft | 184 kts | 50° |
| 2026-05-05 19:17 | 53.62611 | 9.97989 | 1453 ft | 176 kts | 51° |
| 2026-05-05 19:18 | 53.63303 | 9.99458 | 1590 ft | 148 kts | 52° |
| 2026-05-05 19:18 | 53.63920 | 10.00819 | 1685 ft | 150 kts | 53° |
| 2026-05-05 19:18 | 53.64565 | 10.02276 | 1896 ft | 159 kts | 53° |
| 2026-05-05 19:18 | 53.65212 | 10.03796 | 2129 ft | 161 kts | 54° |
| 2026-05-05 19:19 | 53.65864 | 10.05324 | 2365 ft | 160 kts | 54° |
| 2026-05-05 19:19 | 53.66472 | 10.06899 | 2582 ft | 163 kts | 69° |
| 2026-05-05 19:19 | 53.66459 | 10.08921 | 2843 ft | 190 kts | 108° |
| 2026-05-05 19:19 | 53.65614 | 10.10722 | 3060 ft | 215 kts | 143° |
| 2026-05-05 19:20 | 53.64146 | 10.11542 | 3300 ft | 233 kts | 176° |
| 2026-05-05 19:20 | 53.62546 | 10.10955 | 3535 ft | 239 kts | 200° |
| 2026-05-05 19:20 | 53.61026 | 10.09811 | 3765 ft | 240 kts | 204° |
| 2026-05-05 19:20 | 53.59519 | 10.08604 | 3948 ft | 241 kts | 204° |
| 2026-05-05 19:21 | 53.58013 | 10.07387 | 3999 ft | 241 kts | 204° |
| 2026-05-05 19:21 | 53.56502 | 10.06160 | 4010 ft | 240 kts | 205° |
| 2026-05-05 19:21 | 53.54999 | 10.04948 | 4007 ft | 240 kts | 205° |
| 2026-05-05 19:21 | 53.53609 | 10.03407 | 4010 ft | 241 kts | 224° |
| 2026-05-05 19:22 | 53.52469 | 10.01328 | 4010 ft | 242 kts | 229° |
| 2026-05-05 19:22 | 53.51376 | 9.99183 | 4008 ft | 242 kts | 229° |
| 2026-05-05 19:22 | 53.50289 | 9.97029 | 4007 ft | 241 kts | 229° |
| 2026-05-05 19:22 | 53.49203 | 9.94874 | 4006 ft | 241 kts | 229° |
| 2026-05-05 19:23 | 53.48118 | 9.92722 | 4007 ft | 242 kts | 229° |
| 2026-05-05 19:23 | 53.47035 | 9.90566 | 4007 ft | 241 kts | 230° |
| 2026-05-05 19:23 | 53.45952 | 9.88411 | 4006 ft | 241 kts | 229° |
| 2026-05-05 19:23 | 53.44867 | 9.86252 | 4010 ft | 242 kts | 229° |
| 2026-05-05 19:24 | 53.43783 | 9.84101 | 4007 ft | 241 kts | 229° |
| 2026-05-05 19:24 | 53.42699 | 9.81948 | 4011 ft | 242 kts | 229° |
| 2026-05-05 19:24 | 53.41740 | 9.79728 | 4003 ft | 228 kts | 248° |
| 2026-05-05 19:24 | 53.41528 | 9.77187 | 3797 ft | 221 kts | 282° |
| 2026-05-05 19:25 | 53.42152 | 9.74908 | 3500 ft | 215 kts | 309° |
| 2026-05-05 19:25 | 53.43096 | 9.72956 | 3198 ft | 215 kts | 314° |
| 2026-05-05 19:25 | 53.44058 | 9.71058 | 3015 ft | 213 kts | 314° |
| 2026-05-05 19:25 | 53.45039 | 9.69198 | 3003 ft | 211 kts | 323° |
| 2026-05-05 19:26 | 53.46315 | 9.68199 | 3008 ft | 201 kts | 357° |
| 2026-05-05 19:26 | 53.47663 | 9.68522 | 3007 ft | 196 kts | 28° |
| 2026-05-05 19:26 | 53.48693 | 9.69962 | 3017 ft | 194 kts | 51° |
| 2026-05-05 19:26 | 53.49558 | 9.71701 | 3010 ft | 194 kts | 51° |
| 2026-05-05 19:27 | 53.50425 | 9.73446 | 3006 ft | 195 kts | 51° |
| 2026-05-05 19:27 | 53.51294 | 9.75188 | 3008 ft | 194 kts | 51° |
| 2026-05-05 19:27 | 53.52159 | 9.76923 | 2988 ft | 194 kts | 51° |
| 2026-05-05 19:27 | 53.53016 | 9.78641 | 2811 ft | 193 kts | 51° |
| 2026-05-05 19:28 | 53.53879 | 9.80372 | 2573 ft | 192 kts | 51° |
| 2026-05-05 19:28 | 53.54732 | 9.82086 | 2319 ft | 191 kts | 51° |
| 2026-05-05 19:28 | 53.55579 | 9.83788 | 2061 ft | 189 kts | 51° |
| 2026-05-05 19:28 | 53.56406 | 9.85450 | 1829 ft | 178 kts | 51° |
| 2026-05-05 19:29 | 53.57158 | 9.86961 | 1576 ft | 159 kts | 51° |
| 2026-05-05 19:29 | 53.57825 | 9.88301 | 1381 ft | 139 kts | 51° |
| 2026-05-05 19:29 | 53.58428 | 9.89517 | 1181 ft | 133 kts | 51° |
| 2026-05-05 19:29 | 53.59019 | 9.90708 | 1011 ft | 133 kts | 51° |
| 2026-05-05 19:30 | 53.59612 | 9.91905 | 828 ft | 134 kts | 50° |
| 2026-05-05 19:30 | 53.60212 | 9.93115 | 638 ft | 134 kts | 49° |
| 2026-05-05 19:30 | 53.60820 | 9.94332 | 430 ft | 136 kts | 50° |
| 2026-05-05 19:30 | 53.61428 | 9.95540 | 216 ft | 135 kts | 51° |
| 2026-05-05 19:31 | 53.62024 | 9.96770 | 62 ft | 134 kts | 50° |
| 2026-05-05 19:31 | 53.62483 | 9.97703 | 47 ft | 58 kts | 50° |
| 2026-05-05 19:31 | 53.62728 | 9.98201 | 50 ft | 58 kts | 50° |
| 2026-05-05 19:31 | 53.62984 | 9.98718 | 49 ft | 58 kts | 50° |
| 2026-05-05 19:32 | 53.63240 | 9.99230 | 53 ft | 44 kts | 50° |
| 2026-05-05 19:32 | 53.63284 | 9.99591 | 47 ft | 27 kts | 102° |
| 2026-05-05 19:32 | 53.63279 | 9.99634 | 50 ft | 0 kts | 98° |
| 2026-05-05 19:33 | 53.63279 | 9.99635 | 50 ft | 1 kts | 98° |
| 2026-05-05 19:33 | 53.63251 | 9.99739 | 50 ft | 18 kts | 139° |
| 2026-05-05 19:33 | 53.63143 | 9.99834 | 50 ft | 17 kts | 147° |
| 2026-05-05 19:33 | 53.63157 | 9.99987 | 51 ft | 16 kts | 46° |
| 2026-05-05 19:34 | 53.63231 | 10.00148 | 51 ft | 18 kts | 65° |
| 2026-05-05 19:34 | 53.63247 | 10.00351 | 51 ft | 12 kts | 88° |
| 2026-05-05 19:34 | 53.63247 | 10.00358 | 51 ft | 0 kts | 88° |